Time,TemperatureF,DewpointF,PressureIn,WindDirection,WindDirectionDegrees,WindSpeedMPH,WindSpeedGustMPH,Humidity,HourlyPrecipIn,Conditions,Clouds,dailyrainin,SoftwareType,DateUTC
2013-02-01 00:03:00,32.0,30.0,29.92,South,179,0.0,0.0,92,-99.99,,,-99.99,,2013-02-01 05:03:00,
2013-02-01 00:22:00,31.0,29.0,29.92,South,179,0.0,0.0,94,-99.99,,,-99.99,,2013-02-01 05:22:00,
2013-02-01 00:32:00,30.0,29.0,29.91,South,179,0.0,0.0,96,-99.99,,,-99.99,,2013-02-01 05:32:00,
2013-02-01 00:52:00,30.0,29.0,29.91,South,179,0.0,0.0,98,-99.99,,,-99.99,,2013-02-01 05:52:00,
2013-02-01 01:02:00,29.0,29.0,29.92,South,179,0.0,0.0,98,-99.99,,,-99.99,,2013-02-01 06:02:00,
2013-02-01 01:22:00,29.0,29.0,29.91,South,179,0.0,0.0,99,-99.99,,,-99.99,,2013-02-01 06:22:00,
2013-02-01 01:52:00,29.0,29.0,29.89,South,179,0.0,0.0,99,-99.99,,,-99.99,,2013-02-01 06:52:00,
2013-02-01 02:02:00,29.0,29.0,29.88,SE,131,3.0,4.0,98,-99.99,,,-99.99,,2013-02-01 07:02:00,
2013-02-01 02:22:00,30.0,29.0,29.86,South,179,3.0,7.0,98,-99.99,,,-99.99,,2013-02-01 07:22:00,
2013-02-01 02:52:00,32.0,31.0,29.85,SSE,156,5.0,9.0,95,-99.99,,,-99.99,,2013-02-01 07:52:00,
2013-02-01 03:52:00,36.0,33.0,29.83,South,179,8.0,16.0,90,-99.99,,,-99.99,,2013-02-01 08:52:00,
2013-02-01 04:02:00,36.0,33.0,29.82,South,186,6.0,20.0,89,-99.99,,,-99.99,,2013-02-01 09:02:00,
2013-02-01 04:21:00,36.0,34.0,29.81,SSE,148,7.0,15.0,91,-99.99,,,-99.99,,2013-02-01 09:21:00,
2013-02-01 05:53:00,35.0,34.0,29.88,SSW,210,9.0,18.0,98,-99.99,,,-99.99,,2013-02-01 10:53:00,
2013-02-01 06:02:00,35.0,32.0,29.91,West,279,14.0,31.0,90,-99.99,,,-99.99,,2013-02-01 11:02:00,
2013-02-01 06:22:00,33.0,30.0,29.93,WSW,239,11.0,29.0,88,-99.99,,,-99.99,,2013-02-01 11:22:00,
2013-02-01 06:32:00,33.0,30.0,29.93,WSW,239,11.0,29.0,88,-99.99,,,-99.99,,2013-02-01 11:32:00,
2013-02-01 06:42:00,33.0,30.0,29.93,WSW,239,11.0,29.0,88,-99.99,,,-99.99,,2013-02-01 11:42:00,
2013-02-01 06:53:00,32.0,27.0,29.96,SW,222,12.0,23.0,81,-99.99,,,-99.99,,2013-02-01 11:53:00,
2013-02-01 07:03:00,31.0,25.0,29.98,SW,225,14.0,26.0,78,-99.99,,,-99.99,,2013-02-01 12:03:00,
2013-02-01 07:12:00,31.0,25.0,29.98,SW,225,14.0,26.0,78,-99.99,,,-99.99,,2013-02-01 12:12:00,
2013-02-01 07:23:00,30.0,24.0,30.02,West,267,11.0,26.0,78,-99.99,,,-99.99,,2013-02-01 12:23:00,
2013-02-01 07:32:00,30.0,24.0,30.02,West,267,11.0,26.0,78,-99.99,,,-99.99,,2013-02-01 12:32:00,
2013-02-01 07:42:00,30.0,24.0,30.02,West,267,11.0,26.0,78,-99.99,,,-99.99,,2013-02-01 12:42:00,
2013-02-01 07:52:00,29.0,23.0,30.04,SSW,203,8.0,29.0,78,-99.99,,,-99.99,,2013-02-01 12:52:00,
2013-02-01 08:02:00,29.0,23.0,30.04,SSW,203,8.0,29.0,78,-99.99,,,-99.99,,2013-02-01 13:02:00,
2013-02-01 09:32:00,27.0,19.0,30.14,SW,224,9.0,21.0,70,-99.99,,,-99.99,,2013-02-01 14:32:00,
2013-02-01 09:53:00,26.0,17.0,30.15,WSW,249,11.0,24.0,69,-99.99,,,-99.99,,2013-02-01 14:53:00,
2013-02-01 10:03:00,27.0,19.0,30.15,South,184,5.0,19.0,70,-99.99,,,-99.99,,2013-02-01 15:03:00,
2013-02-01 11:03:00,27.0,19.0,30.18,WNW,291,9.0,15.0,70,-99.99,,,-99.99,,2013-02-01 16:03:00,
2013-02-01 11:33:00,27.0,19.0,30.20,WSW,242,13.0,20.0,72,-99.99,,,-99.99,,2013-02-01 16:33:00,
2013-02-01 11:43:00,27.0,19.0,30.20,SSW,207,11.0,19.0,70,-99.99,,,-99.99,,2013-02-01 16:43:00,
2013-02-01 11:53:00,27.0,19.0,30.20,SSW,207,11.0,19.0,70,-99.99,,,-99.99,,2013-02-01 16:53:00,
2013-02-01 12:03:00,28.0,20.0,30.20,WSW,248,12.0,20.0,70,-99.99,,,-99.99,,2013-02-01 17:03:00,
2013-02-01 12:22:00,28.0,19.0,30.21,WSW,253,6.0,19.0,69,-99.99,,,-99.99,,2013-02-01 17:22:00,
2013-02-01 12:53:00,28.0,19.0,30.21,WSW,256,8.0,21.0,69,-99.99,,,-99.99,,2013-02-01 17:53:00,
2013-02-01 13:03:00,29.0,19.0,30.20,WSW,241,10.0,24.0,67,-99.99,,,-99.99,,2013-02-01 18:03:00,
2013-02-01 13:32:00,30.0,21.0,30.19,WNW,301,6.0,13.0,69,-99.99,,,-99.99,,2013-02-01 18:32:00,
2013-02-01 13:53:00,30.0,21.0,30.18,West,263,7.0,16.0,68,-99.99,,,-99.99,,2013-02-01 18:53:00,
2013-02-01 14:33:00,31.0,21.0,30.20,WNW,283,8.0,17.0,66,-99.99,,,-99.99,,2013-02-01 19:33:00,
2013-02-01 15:02:00,31.0,19.0,30.21,SSW,211,10.0,14.0,61,-99.99,,,-99.99,,2013-02-01 20:02:00,
2013-02-01 15:22:00,31.0,19.0,30.21,SW,232,8.0,19.0,61,-99.99,,,-99.99,,2013-02-01 20:22:00,
2013-02-01 16:02:00,31.0,20.0,30.22,West,269,8.0,19.0,64,-99.99,,,-99.99,,2013-02-01 21:02:00,
2013-02-01 17:03:00,30.0,19.0,30.24,WSW,239,8.0,15.0,63,-99.99,,,-99.99,,2013-02-01 22:03:00,
2013-02-01 17:22:00,31.0,21.0,30.24,SSW,208,4.0,7.0,65,-99.99,,,-99.99,,2013-02-01 22:22:00,
2013-02-01 17:32:00,30.0,19.0,30.25,SW,235,6.0,13.0,64,-99.99,,,-99.99,,2013-02-01 22:32:00,
2013-02-01 18:02:00,29.0,20.0,30.26,SW,234,1.0,5.0,68,-99.99,,,-99.99,,2013-02-01 23:02:00,
2013-02-01 18:22:00,29.0,20.0,30.27,SW,220,4.0,7.0,68,-99.99,,,-99.99,,2013-02-01 23:22:00,
2013-02-01 18:32:00,28.0,19.0,30.27,SW,215,3.0,7.0,68,-99.99,,,-99.99,,2013-02-01 23:32:00,
2013-02-01 18:52:00,28.0,19.0,30.27,WSW,244,0.0,5.0,68,-99.99,,,-99.99,,2013-02-01 23:52:00,
2013-02-01 19:22:00,27.0,20.0,30.29,West,260,2.0,7.0,73,-99.99,,,-99.99,,2013-02-02 00:22:00,
2013-02-01 19:32:00,27.0,19.0,30.29,SW,227,0.0,0.0,71,-99.99,,,-99.99,,2013-02-02 00:32:00,
2013-02-01 19:52:00,26.0,18.0,30.29,SW,227,0.0,0.0,71,-99.99,,,-99.99,,2013-02-02 00:52:00,
2013-02-01 20:21:00,25.0,18.0,30.30,SW,227,0.0,0.0,74,-99.99,,,-99.99,,2013-02-02 01:21:00,
2013-02-01 20:32:00,26.0,19.0,30.31,WNW,296,0.0,0.0,74,-99.99,,,-99.99,,2013-02-02 01:32:00,
2013-02-01 20:52:00,25.0,18.0,30.32,WNW,296,0.0,0.0,74,-99.99,,,-99.99,,2013-02-02 01:52:00,
2013-02-01 21:01:00,24.0,20.0,30.32,WNW,296,0.0,0.0,85,-99.99,,,-99.99,,2013-02-02 02:01:00,
2013-02-01 22:22:00,23.0,18.0,30.34,WNW,296,0.0,0.0,81,-99.99,,,-99.99,,2013-02-02 03:22:00,
2013-02-01 23:22:00,23.0,17.0,30.34,West,272,0.0,0.0,79,-99.99,,,-99.99,,2013-02-02 04:22:00,
2013-02-01 23:52:00,21.0,18.0,30.34,West,272,0.0,0.0,88,-99.99,,,-99.99,,2013-02-02 04:52:00,